Time;durP1;ratioP1;P1;durP2;ratioP2;P2;SDS_P1;SDS_P2;PMS_P1;PMS_P2;Temp;Humidity;BMP_temperature;BMP_pressure;BME280_temperature;BME280_humidity;BME280_pressure;Samples;Min_cycle;Max_cycle;Signal;HPM_P1;HPM_P2
2022/09/19 00:01:13;;;;;;;5.90;5.60;;;;;;;;;;5032827;28;20470;-71
2022/09/19 00:03:42;;;;;;;5.72;5.47;;;;;;;;;;5033080;28;20029;-71
2022/09/19 00:06:09;;;;;;;5.53;5.33;;;;;;;;;;5035008;28;20029;-71
2022/09/19 00:08:38;;;;;;;5.97;5.68;;;;;;;;;;5038727;28;20033;-72
2022/09/19 00:11:05;;;;;;;5.45;5.25;;;;;;;;;;5038368;28;20117;-73
2022/09/19 00:13:33;;;;;;;5.50;5.30;;;;;;;;;;5053755;28;20041;-71
2022/09/19 00:15:59;;;;;;;6.00;5.70;;;;;;;;;;5035943;28;20060;-72
2022/09/19 00:18:26;;;;;;;5.40;5.20;;;;;;;;;;5043627;28;20094;-73
2022/09/19 00:20:52;;;;;;;5.97;5.68;;;;;;;;;;5038595;28;20121;-71
2022/09/19 00:26:06;;;;;;;5.32;5.13;;;;;;;;;;5042279;28;20055;-71
2022/09/19 00:28:33;;;;;;;5.55;5.35;;;;;;;;;;5039313;28;20041;-72
2022/09/19 00:31:00;;;;;;;5.50;5.30;;;;;;;;;;5040895;28;20075;-73
2022/09/19 00:33:27;;;;;;;5.53;5.32;;;;;;;;;;5017119;28;20060;-74
2022/09/19 00:35:56;;;;;;;5.50;5.30;;;;;;;;;;5023513;28;20028;-73
2022/09/19 00:38:26;;;;;;;5.53;5.32;;;;;;;;;;5038063;28;20043;-72
2022/09/19 00:40:52;;;;;;;5.85;5.55;;;;;;;;;;5037096;28;20496;-72
2022/09/19 00:43:20;;;;;;;5.95;5.65;;;;;;;;;;5040568;28;20028;-71
2022/09/19 00:45:46;;;;;;;5.60;5.40;;;;;;;;;;5041357;28;20116;-72
2022/09/19 00:48:17;;;;;;;5.35;5.15;;;;;;;;;;5023061;28;20059;-72
2022/09/19 00:50:46;;;;;;;5.80;5.50;;;;;;;;;;5033705;28;20113;-71
2022/09/19 00:53:17;;;;;;;5.65;5.43;;;;;;;;;;5036478;28;20420;-72
2022/09/19 00:55:44;;;;;;;5.63;5.43;;;;;;;;;;5040840;28;20061;-72
2022/09/19 00:58:28;;;;;;;5.75;5.47;;;;;;;;;;5040489;28;20103;-72
2022/09/19 01:00:55;;;;;;;5.47;5.28;;;;;;;;;;5033168;28;20032;-73
2022/09/19 01:03:24;;;;;;;5.20;5.00;;;;;;;;;;5040155;28;20214;-73
2022/09/19 01:06:22;;;;;;;5.00;4.80;;;;;;;;;;5022618;28;20044;-73
2022/09/19 01:08:55;;;;;;;5.20;5.00;;;;;;;;;;5034631;28;20029;-73
2022/09/19 01:11:50;;;;;;;5.23;5.03;;;;;;;;;;5040475;28;20492;-72
2022/09/19 01:15:08;;;;;;;5.28;5.07;;;;;;;;;;5039150;28;20515;-71
2022/09/19 01:17:47;;;;;;;5.40;5.20;;;;;;;;;;5015749;28;20053;-72
2022/09/19 01:20:25;;;;;;;5.30;5.10;;;;;;;;;;5039461;28;20495;-72
2022/09/19 01:23:40;;;;;;;5.35;5.15;;;;;;;;;;5038661;28;20037;-73
2022/09/19 01:26:45;;;;;;;5.50;5.30;;;;;;;;;;4961259;28;20041;-73
2022/09/19 01:29:25;;;;;;;5.55;5.35;;;;;;;;;;5038380;28;20037;-73
2022/09/19 01:31:57;;;;;;;5.18;4.97;;;;;;;;;;5018189;28;20029;-72
2022/09/19 01:34:30;;;;;;;5.40;5.20;;;;;;;;;;5032690;28;20033;-72
2022/09/19 01:37:04;;;;;;;5.55;5.35;;;;;;;;;;5022116;28;20036;-72
2022/09/19 01:39:35;;;;;;;5.50;5.30;;;;;;;;;;5033305;28;20069;-73
2022/09/19 01:42:01;;;;;;;5.47;5.28;;;;;;;;;;5027374;28;20025;-73
2022/09/19 01:44:29;;;;;;;5.50;5.30;;;;;;;;;;5032919;28;20575;-72
2022/09/19 01:47:24;;;;;;;5.70;5.43;;;;;;;;;;5038140;28;20408;-72
2022/09/19 01:49:55;;;;;;;5.45;5.25;;;;;;;;;;5037147;28;20043;-72
2022/09/19 01:52:48;;;;;;;5.20;5.00;;;;;;;;;;5039480;28;20047;-73
2022/09/19 01:55:23;;;;;;;5.40;5.20;;;;;;;;;;5038366;28;20042;-72
2022/09/19 01:58:20;;;;;;;5.40;5.20;;;;;;;;;;5019473;28;20048;-73
2022/09/19 02:01:21;;;;;;;5.47;5.28;;;;;;;;;;5031487;28;20716;-74
2022/09/19 02:03:55;;;;;;;5.32;5.13;;;;;;;;;;5040321;28;20629;-72
2022/09/19 02:06:48;;;;;;;5.22;5.03;;;;;;;;;;5022756;28;20052;-73
2022/09/19 02:09:46;;;;;;;5.03;4.82;;;;;;;;;;5017059;28;20189;-73
2022/09/19 02:12:16;;;;;;;5.30;5.10;;;;;;;;;;5037952;28;20112;-71
2022/09/19 02:14:54;;;;;;;5.28;5.07;;;;;;;;;;5037773;28;20431;-72
2022/09/19 02:17:32;;;;;;;5.40;5.20;;;;;;;;;;5038851;28;20053;-71
2022/09/19 02:20:12;;;;;;;5.40;5.20;;;;;;;;;;5031831;28;20123;-72
2022/09/19 02:22:43;;;;;;;5.30;5.10;;;;;;;;;;5036933;28;20079;-72
2022/09/19 02:25:16;;;;;;;5.30;5.10;;;;;;;;;;5024137;28;20040;-72
2022/09/19 02:27:49;;;;;;;5.40;5.20;;;;;;;;;;5019024;28;20049;-73
2022/09/19 02:30:18;;;;;;;5.40;5.20;;;;;;;;;;5037246;28;20028;-72
2022/09/19 02:32:47;;;;;;;5.30;5.10;;;;;;;;;;5040024;28;20500;-73
2022/09/19 02:35:38;;;;;;;5.32;5.13;;;;;;;;;;5036699;28;20059;-74
2022/09/19 02:38:23;;;;;;;5.45;5.25;;;;;;;;;;5035017;28;20087;-75
2022/09/19 02:40:59;;;;;;;5.20;5.00;;;;;;;;;;5018345;28;20045;-72
2022/09/19 02:43:47;;;;;;;5.30;5.10;;;;;;;;;;5035873;28;20033;-73
2022/09/19 02:46:22;;;;;;;5.32;5.13;;;;;;;;;;5013945;28;20048;-71
2022/09/19 02:48:54;;;;;;;5.18;4.97;;;;;;;;;;5023446;28;20033;-72
2022/09/19 02:51:26;;;;;;;5.30;5.10;;;;;;;;;;5011671;28;20797;-72
2022/09/19 02:54:00;;;;;;;5.20;5.00;;;;;;;;;;5021223;28;20048;-70
2022/09/19 02:56:30;;;;;;;5.10;4.90;;;;;;;;;;5024925;28;20099;-71
2022/09/19 02:59:06;;;;;;;5.30;5.10;;;;;;;;;;5043866;28;20096;-73
2022/09/19 03:01:44;;;;;;;5.10;4.90;;;;;;;;;;5022435;28;20045;-73
2022/09/19 03:04:14;;;;;;;4.97;4.78;;;;;;;;;;5023138;28;20030;-71
2022/09/19 03:07:13;;;;;;;5.20;5.00;;;;;;;;;;5041278;28;20041;-71
2022/09/19 03:10:06;;;;;;;5.10;4.90;;;;;;;;;;5034257;28;20062;-72
2022/09/19 03:12:56;;;;;;;5.15;4.95;;;;;;;;;;5039132;28;20527;-72
2022/09/19 03:15:30;;;;;;;4.88;4.68;;;;;;;;;;5040997;28;20039;-72
2022/09/19 03:17:57;;;;;;;4.88;4.68;;;;;;;;;;5024257;28;20091;-73
2022/09/19 03:20:25;;;;;;;5.10;4.90;;;;;;;;;;5019586;28;20072;-72
2022/09/19 03:22:53;;;;;;;5.18;4.97;;;;;;;;;;5040440;28;20052;-72
2022/09/19 03:25:20;;;;;;;5.10;4.90;;;;;;;;;;5027490;28;20507;-73
2022/09/19 03:27:48;;;;;;;5.00;4.80;;;;;;;;;;5028384;28;20546;-71
2022/09/19 03:30:16;;;;;;;5.13;4.93;;;;;;;;;;5032466;28;20032;-71
2022/09/19 03:32:42;;;;;;;5.00;4.80;;;;;;;;;;5022983;28;20065;-71
2022/09/19 03:35:10;;;;;;;4.97;4.78;;;;;;;;;;5019584;28;20087;-71
2022/09/19 03:37:36;;;;;;;5.10;4.90;;;;;;;;;;5041788;28;20102;-71
2022/09/19 03:40:03;;;;;;;5.13;4.93;;;;;;;;;;5042850;28;20059;-72
2022/09/19 03:42:35;;;;;;;4.97;4.78;;;;;;;;;;5019408;28;20496;-71
2022/09/19 03:45:02;;;;;;;4.90;4.70;;;;;;;;;;5041885;28;20435;-72
2022/09/19 03:47:29;;;;;;;4.97;4.78;;;;;;;;;;5040915;28;20503;-71
2022/09/19 03:49:54;;;;;;;4.57;4.38;;;;;;;;;;5034696;28;20032;-73
2022/09/19 03:52:20;;;;;;;5.10;4.90;;;;;;;;;;5022545;28;20120;-72
2022/09/19 03:54:46;;;;;;;5.07;4.88;;;;;;;;;;5027454;28;20108;-72
2022/09/19 03:57:13;;;;;;;4.88;4.68;;;;;;;;;;5037163;28;20033;-72
2022/09/19 03:59:41;;;;;;;4.70;4.50;;;;;;;;;;5036687;28;20061;-72
2022/09/19 04:02:11;;;;;;;4.78;4.57;;;;;;;;;;5020892;28;20025;-71
2022/09/19 04:04:37;;;;;;;5.03;4.82;;;;;;;;;;5041403;28;20083;-72
2022/09/19 04:07:05;;;;;;;5.22;5.03;;;;;;;;;;5015280;28;20037;-70
2022/09/19 04:09:31;;;;;;;4.65;4.45;;;;;;;;;;5036227;28;20068;-70
2022/09/19 04:12:02;;;;;;;5.28;5.07;;;;;;;;;;5035024;28;20112;-72
2022/09/19 04:14:29;;;;;;;;;;;;;;;;;;5018079;28;20479;-71
2022/09/19 04:16:58;;;;;;;5.07;4.88;;;;;;;;;;5040008;28;19913;-72
2022/09/19 04:19:26;;;;;;;5.40;5.20;;;;;;;;;;5021829;28;20045;-72
2022/09/19 04:22:20;;;;;;;5.32;5.13;;;;;;;;;;5019421;28;20030;-71
2022/09/19 04:25:10;;;;;;;5.20;5.00;;;;;;;;;;5035118;28;20044;-72
2022/09/19 04:28:03;;;;;;;5.20;5.00;;;;;;;;;;5032439;28;20091;-72
2022/09/19 04:30:31;;;;;;;5.60;5.40;;;;;;;;;;5033453;28;20120;-72
2022/09/19 04:33:03;;;;;;;5.45;5.25;;;;;;;;;;5007446;28;20150;-72
2022/09/19 04:35:34;;;;;;;5.63;5.40;;;;;;;;;;5022232;28;20064;-71
2022/09/19 04:38:02;;;;;;;5.68;5.43;;;;;;;;;;5023329;28;20294;-72
2022/09/19 04:40:28;;;;;;;5.57;5.38;;;;;;;;;;5018226;28;20116;-71
2022/09/19 04:42:54;;;;;;;5.80;5.50;;;;;;;;;;5035523;28;20029;-71
2022/09/19 04:45:20;;;;;;;5.93;5.63;;;;;;;;;;5040573;28;20044;-71
2022/09/19 04:48:17;;;;;;;5.93;5.63;;;;;;;;;;5024281;28;20500;-71
2022/09/19 04:50:45;;;;;;;5.53;5.32;;;;;;;;;;5019283;28;20067;-71
2022/09/19 04:53:13;;;;;;;5.90;5.60;;;;;;;;;;5029818;28;20038;-71
2022/09/19 04:55:42;;;;;;;5.80;5.50;;;;;;;;;;5030929;28;20064;-72
2022/09/19 04:58:08;;;;;;;5.50;5.30;;;;;;;;;;5037148;28;20033;-72
2022/09/19 05:00:39;;;;;;;5.78;5.50;;;;;;;;;;5017202;28;20117;-71
2022/09/19 05:03:15;;;;;;;5.60;5.40;;;;;;;;;;5012917;28;20030;-72
2022/09/19 05:05:50;;;;;;;5.60;5.40;;;;;;;;;;5032974;28;20709;-71
2022/09/19 05:08:25;;;;;;;5.45;5.25;;;;;;;;;;5028822;28;20033;-72
2022/09/19 05:10:54;;;;;;;5.53;5.32;;;;;;;;;;5039604;28;20414;-71
2022/09/19 05:13:23;;;;;;;5.97;5.68;;;;;;;;;;5011150;28;21421;-72
2022/09/19 05:15:51;;;;;;;5.50;5.30;;;;;;;;;;5039803;28;20043;-75
2022/09/19 05:18:21;;;;;;;5.53;5.32;;;;;;;;;;5021844;28;20037;-75
2022/09/19 05:20:52;;;;;;;5.97;5.68;;;;;;;;;;5035916;28;20100;-74
2022/09/19 05:23:23;;;;;;;5.40;5.20;;;;;;;;;;5004187;28;20037;-72
2022/09/19 05:25:53;;;;;;;6.07;5.78;;;;;;;;;;5032317;28;20060;-73
2022/09/19 05:28:21;;;;;;;5.60;5.40;;;;;;;;;;5028871;28;20503;-75
2022/09/19 05:30:54;;;;;;;5.85;5.55;;;;;;;;;;5026175;28;20048;-72
2022/09/19 05:33:26;;;;;;;6.00;5.70;;;;;;;;;;5031349;28;20041;-72
2022/09/19 05:35:56;;;;;;;5.50;5.30;;;;;;;;;;5023203;28;20028;-72
2022/09/19 05:38:43;;;;;;;5.47;5.28;;;;;;;;;;5003023;28;20110;-72
2022/09/19 05:41:29;;;;;;;5.47;5.28;;;;;;;;;;5021804;28;20523;-72
2022/09/19 05:44:00;;;;;;;5.55;5.35;;;;;;;;;;5036623;28;20501;-72
2022/09/19 05:46:27;;;;;;;5.80;5.50;;;;;;;;;;5021231;28;20125;-72
2022/09/19 05:48:54;;;;;;;5.72;5.45;;;;;;;;;;5033109;28;20036;-72
2022/09/19 05:51:19;;;;;;;5.88;5.57;;;;;;;;;;5038527;28;20047;-72
2022/09/19 05:53:54;;;;;;;5.80;5.50;;;;;;;;;;5037415;28;20489;-72
2022/09/19 05:56:44;;;;;;;5.95;5.65;;;;;;;;;;5000296;28;21265;-73
2022/09/19 05:59:11;;;;;;;5.60;5.40;;;;;;;;;;5031452;28;20029;-72
2022/09/19 06:01:38;;;;;;;5.50;5.30;;;;;;;;;;5033436;28;20042;-72
2022/09/19 06:04:10;;;;;;;5.60;5.40;;;;;;;;;;5033372;28;20116;-72
2022/09/19 06:06:39;;;;;;;5.55;5.35;;;;;;;;;;5035930;28;20053;-72
2022/09/19 06:09:06;;;;;;;6.05;5.75;;;;;;;;;;5038570;28;20109;-72
2022/09/19 06:11:36;;;;;;;5.72;5.47;;;;;;;;;;5037099;28;20045;-72
2022/09/19 06:14:14;;;;;;;5.47;5.28;;;;;;;;;;5035174;28;20040;-72
2022/09/19 06:16:42;;;;;;;6.10;5.80;;;;;;;;;;5022199;28;20041;-72
2022/09/19 06:19:31;;;;;;;6.28;5.97;;;;;;;;;;4995717;28;20057;-73
2022/09/19 06:22:05;;;;;;;6.22;5.93;;;;;;;;;;5031921;28;20042;-72
2022/09/19 06:24:31;;;;;;;6.10;5.80;;;;;;;;;;5012077;28;20084;-72
2022/09/19 06:26:58;;;;;;;6.28;5.97;;;;;;;;;;5015549;28;20441;-73
2022/09/19 06:29:25;;;;;;;6.20;5.90;;;;;;;;;;5036688;28;20044;-73
2022/09/19 06:32:13;;;;;;;6.72;6.43;;;;;;;;;;5005546;28;20045;-72
2022/09/19 06:34:44;;;;;;;6.50;6.20;;;;;;;;;;5032551;28;20045;-73
2022/09/19 06:37:11;;;;;;;6.60;6.30;;;;;;;;;;5040057;28;20039;-72
2022/09/19 06:39:37;;;;;;;6.47;6.18;;;;;;;;;;5019832;28;20033;-71
2022/09/19 06:42:41;;;;;;;6.47;6.18;;;;;;;;;;4960573;28;20100;-72
2022/09/19 06:45:31;;;;;;;6.28;5.97;;;;;;;;;;4959377;28;20089;-71
2022/09/19 06:48:05;;;;;;;5.65;5.40;;;;;;;;;;4955073;28;20070;-72
2022/09/19 06:50:39;;;;;;;6.38;6.07;;;;;;;;;;4959131;28;20053;-71
2022/09/19 06:53:09;;;;;;;6.30;6.00;;;;;;;;;;4968839;28;20073;-72
2022/09/19 06:55:34;;;;;;;6.25;5.95;;;;;;;;;;4972277;28;20035;-72
2022/09/19 06:58:05;;;;;;;6.40;6.10;;;;;;;;;;4966710;28;20046;-71
2022/09/19 07:00:35;;;;;;;6.25;5.95;;;;;;;;;;4954329;28;20054;-72
2022/09/19 07:03:04;;;;;;;6.43;6.13;;;;;;;;;;4959835;28;20050;-72
2022/09/19 07:05:34;;;;;;;6.40;6.10;;;;;;;;;;4965040;28;20053;-72
2022/09/19 07:08:35;;;;;;;6.28;5.97;;;;;;;;;;4920840;29;20051;-72
2022/09/19 07:11:04;;;;;;;6.38;6.07;;;;;;;;;;4966342;28;20100;-72
2022/09/19 07:13:31;;;;;;;6.47;6.18;;;;;;;;;;4999402;28;20048;-72
2022/09/19 07:16:02;;;;;;;6.00;5.70;;;;;;;;;;5041185;28;20033;-71
2022/09/19 07:18:29;;;;;;;6.40;6.10;;;;;;;;;;5023072;28;20033;-72
2022/09/19 07:21:00;;;;;;;6.15;5.85;;;;;;;;;;5021082;28;20064;-72
2022/09/19 07:23:31;;;;;;;6.30;6.00;;;;;;;;;;5034769;28;20094;-72
2022/09/19 07:26:26;;;;;;;6.50;6.20;;;;;;;;;;5014478;28;20144;-72
2022/09/19 07:28:51;;;;;;;6.25;5.95;;;;;;;;;;5022696;28;20117;-71
2022/09/19 07:31:17;;;;;;;6.20;5.90;;;;;;;;;;5014443;28;20679;-72
2022/09/19 07:33:46;;;;;;;6.50;6.20;;;;;;;;;;5032185;28;20033;-72
2022/09/19 07:36:12;;;;;;;6.07;5.78;;;;;;;;;;4991902;28;20049;-72
2022/09/19 07:38:40;;;;;;;6.10;5.80;;;;;;;;;;5012898;28;20523;-73
2022/09/19 07:41:24;;;;;;;6.30;6.00;;;;;;;;;;5027506;28;20045;-72
2022/09/19 07:44:03;;;;;;;6.30;6.00;;;;;;;;;;5014830;28;20041;-72
2022/09/19 07:49:47;;;;;;;6.30;6.00;;;;;;;;;;5017064;28;20752;-72
2022/09/19 07:52:31;;;;;;;6.40;6.10;;;;;;;;;;5034524;28;20049;-71
2022/09/19 07:54:57;;;;;;;6.32;6.03;;;;;;;;;;5029249;28;20039;-71
2022/09/19 07:57:23;;;;;;;6.10;5.80;;;;;;;;;;5017614;28;20428;-72
2022/09/19 07:59:48;;;;;;;6.50;6.20;;;;;;;;;;5030798;28;20032;-71
2022/09/19 08:02:14;;;;;;;6.05;5.75;;;;;;;;;;5036998;28;20510;-71
2022/09/19 08:04:40;;;;;;;6.18;5.88;;;;;;;;;;5025682;28;20302;-71
2022/09/19 08:07:06;;;;;;;5.88;5.57;;;;;;;;;;5017522;28;20048;-71
2022/09/19 08:09:33;;;;;;;6.00;5.70;;;;;;;;;;5019031;28;20516;-71
2022/09/19 08:12:25;;;;;;;6.10;5.80;;;;;;;;;;5022165;28;20052;-71
2022/09/19 08:15:03;;;;;;;6.00;5.70;;;;;;;;;;5009033;28;20041;-71
2022/09/19 08:17:29;;;;;;;6.00;5.70;;;;;;;;;;5015198;28;20040;-71
2022/09/19 08:19:56;;;;;;;6.13;5.82;;;;;;;;;;5023805;28;20116;-72
2022/09/19 08:22:22;;;;;;;6.07;5.78;;;;;;;;;;5029853;28;20039;-71
2022/09/19 08:24:56;;;;;;;5.90;5.60;;;;;;;;;;5035434;28;20072;-71
2022/09/19 08:27:23;;;;;;;6.03;5.72;;;;;;;;;;5033793;28;20064;-72
2022/09/19 08:29:49;;;;;;;6.10;5.80;;;;;;;;;;5033446;28;20034;-71
2022/09/19 08:32:15;;;;;;;5.95;5.65;;;;;;;;;;5033499;28;20036;-71
2022/09/19 08:34:41;;;;;;;6.13;5.82;;;;;;;;;;5018026;28;20043;-72
2022/09/19 08:37:07;;;;;;;5.95;5.65;;;;;;;;;;5019055;28;20110;-72
2022/09/19 08:39:35;;;;;;;6.30;6.00;;;;;;;;;;5027405;28;20048;-72
2022/09/19 08:42:33;;;;;;;6.47;6.18;;;;;;;;;;5015265;28;20086;-72
2022/09/19 08:45:17;;;;;;;5.90;5.60;;;;;;;;;;5027029;28;20034;-72
2022/09/19 08:47:44;;;;;;;5.45;5.25;;;;;;;;;;5007682;28;20500;-72
2022/09/19 08:50:20;;;;;;;5.25;5.05;;;;;;;;;;5013652;28;20044;-72
2022/09/19 08:52:50;;;;;;;5.22;5.03;;;;;;;;;;5033282;28;20087;-72
2022/09/19 08:55:24;;;;;;;5.15;4.95;;;;;;;;;;5011996;28;20520;-72
2022/09/19 08:57:51;;;;;;;6.47;6.18;;;;;;;;;;5034132;28;20038;-72
2022/09/19 09:00:20;;;;;;;6.50;6.20;;;;;;;;;;5037293;28;20039;-72
2022/09/19 09:02:58;;;;;;;5.28;5.07;;;;;;;;;;5015307;28;20036;-72
2022/09/19 09:05:26;;;;;;;5.97;5.68;;;;;;;;;;5030356;28;20124;-72
2022/09/19 09:08:19;;;;;;;6.75;6.40;;;;;;;;;;5034242;28;20045;-72
2022/09/19 09:11:07;;;;;;;5.90;5.60;;;;;;;;;;5024993;28;20040;-72
2022/09/19 09:13:36;;;;;;;6.47;6.18;;;;;;;;;;5025580;28;20041;-72
2022/09/19 09:16:32;;;;;;;5.95;5.65;;;;;;;;;;5034370;28;20504;-72
2022/09/19 09:19:12;;;;;;;6.47;6.18;;;;;;;;;;5026663;28;20028;-72
2022/09/19 09:22:06;;;;;;;6.22;5.93;;;;;;;;;;5009954;28;20069;-71
2022/09/19 09:24:45;;;;;;;6.20;5.90;;;;;;;;;;5030787;28;20047;-72
2022/09/19 09:27:35;;;;;;;6.07;5.78;;;;;;;;;;5024334;28;20045;-72
2022/09/19 09:30:16;;;;;;;6.03;5.72;;;;;;;;;;5026423;28;20045;-71
2022/09/19 09:32:51;;;;;;;6.13;5.82;;;;;;;;;;4996679;28;20037;-71
2022/09/19 09:35:39;;;;;;;6.38;6.07;;;;;;;;;;5031169;28;20041;-71
2022/09/19 09:38:30;;;;;;;6.10;5.80;;;;;;;;;;5035803;28;20031;-72
2022/09/19 09:44:00;;;;;;;5.65;5.43;;;;;;;;;;5016718;28;20560;-72
2022/09/19 09:46:55;;;;;;;6.05;5.75;;;;;;;;;;5011746;28;20044;-72
2022/09/19 09:49:29;;;;;;;6.25;5.95;;;;;;;;;;5001684;28;20090;-72
2022/09/19 09:51:58;;;;;;;5.90;5.60;;;;;;;;;;5015440;28;20047;-72
2022/09/19 09:57:54;;;;;;;5.80;5.50;;;;;;;;;;5008764;28;20486;-72
2022/09/19 10:03:42;;;;;;;5.93;5.63;;;;;;;;;;5023028;28;20814;-72
2022/09/19 10:06:30;;;;;;;6.20;5.90;;;;;;;;;;5030949;28;20652;-72
2022/09/19 10:09:16;;;;;;;5.72;5.47;;;;;;;;;;5025431;28;20516;-72
2022/09/19 10:12:23;;;;;;;5.55;5.35;;;;;;;;;;5027860;28;20056;-72
2022/09/19 10:14:55;;;;;;;5.40;5.20;;;;;;;;;;5013875;28;20472;-72
2022/09/19 10:17:42;;;;;;;5.82;5.53;;;;;;;;;;5028762;28;21574;-72
2022/09/19 10:20:19;;;;;;;5.45;5.25;;;;;;;;;;5031033;28;20138;-72
2022/09/19 10:22:46;;;;;;;5.07;4.88;;;;;;;;;;5031431;28;20071;-71
2022/09/19 10:25:15;;;;;;;5.55;5.35;;;;;;;;;;4997756;28;20033;-72
2022/09/19 10:27:45;;;;;;;;;;;;;;;;;;5028457;28;20053;-72
2022/09/19 10:30:36;;;;;;;5.43;5.22;;;;;;;;;;5023089;28;19996;-72
2022/09/19 10:33:25;;;;;;;5.47;5.28;;;;;;;;;;5018966;28;20035;-72
2022/09/19 10:36:04;;;;;;;6.20;5.90;;;;;;;;;;5013088;28;20796;-71
2022/09/19 10:38:46;;;;;;;5.88;5.57;;;;;;;;;;5011204;28;20111;-71
2022/09/19 10:41:12;;;;;;;6.10;5.80;;;;;;;;;;5029343;28;20045;-71
2022/09/19 10:43:47;;;;;;;5.30;5.10;;;;;;;;;;5030285;28;20582;-71
2022/09/19 10:46:26;;;;;;;5.47;5.28;;;;;;;;;;5032288;28;20480;-71
2022/09/19 10:49:23;;;;;;;5.70;5.40;;;;;;;;;;5028040;28;20045;-72
2022/09/19 10:51:51;;;;;;;6.00;5.70;;;;;;;;;;5011629;28;20048;-71
2022/09/19 10:54:39;;;;;;;6.32;6.03;;;;;;;;;;5024836;28;20022;-71
2022/09/19 10:57:40;;;;;;;6.00;5.70;;;;;;;;;;4998998;28;20526;-71
2022/09/19 11:00:28;;;;;;;6.28;5.97;;;;;;;;;;5037668;28;20033;-71
2022/09/19 11:03:23;;;;;;;6.00;5.70;;;;;;;;;;5017240;28;20026;-72
2022/09/19 11:06:07;;;;;;;5.68;5.40;;;;;;;;;;5011681;28;20042;-72
2022/09/19 11:08:46;;;;;;;6.35;6.05;;;;;;;;;;5034000;28;20075;-71
2022/09/19 11:11:45;;;;;;;5.90;5.60;;;;;;;;;;5032194;28;20051;-71
2022/09/19 11:14:18;;;;;;;6.00;5.70;;;;;;;;;;5030651;28;20041;-70
2022/09/19 11:16:57;;;;;;;6.22;5.93;;;;;;;;;;5014192;28;20396;-73
2022/09/19 11:19:27;;;;;;;5.85;5.55;;;;;;;;;;5029643;28;20106;-73
2022/09/19 11:22:28;;;;;;;6.28;5.97;;;;;;;;;;5032270;28;20034;-73
2022/09/19 11:25:22;;;;;;;5.80;5.50;;;;;;;;;;4992011;28;20049;-71
2022/09/19 11:28:19;;;;;;;6.10;5.80;;;;;;;;;;5033209;28;20036;-71
2022/09/19 11:31:08;;;;;;;6.18;5.88;;;;;;;;;;5029809;28;20048;-71
2022/09/19 11:33:46;;;;;;;;;;;;;;;;;;5022336;28;20649;-72
2022/09/19 11:36:53;;;;;;;6.35;6.05;;;;;;;;;;5018257;28;19970;-72
2022/09/19 11:40:00;;;;;;;6.53;6.22;;;;;;;;;;4987863;28;20049;-72
2022/09/19 11:43:04;;;;;;;6.28;5.97;;;;;;;;;;4999477;28;20572;-72
2022/09/19 11:45:51;;;;;;;6.13;5.82;;;;;;;;;;5027934;28;20103;-72
2022/09/19 11:48:54;;;;;;;6.70;6.40;;;;;;;;;;5003320;28;20049;-72
2022/09/19 11:51:29;;;;;;;6.60;6.30;;;;;;;;;;5030575;28;20034;-72
2022/09/19 11:54:07;;;;;;;6.22;5.93;;;;;;;;;;5026985;28;20041;-72
2022/09/19 11:56:52;;;;;;;6.32;6.03;;;;;;;;;;5039331;28;20047;-72
2022/09/19 11:59:24;;;;;;;6.13;5.82;;;;;;;;;;5006482;28;20042;-72
2022/09/19 12:02:12;;;;;;;6.15;5.85;;;;;;;;;;5024741;28;20108;-72
2022/09/19 12:05:05;;;;;;;6.55;6.25;;;;;;;;;;5032569;28;20037;-72
2022/09/19 12:07:38;;;;;;;5.68;5.40;;;;;;;;;;5029316;28;20037;-72
2022/09/19 12:10:22;;;;;;;5.80;5.50;;;;;;;;;;5004717;28;20606;-72
2022/09/19 12:13:03;;;;;;;6.32;6.03;;;;;;;;;;5036458;28;20704;-72
2022/09/19 12:15:39;;;;;;;6.10;5.80;;;;;;;;;;5020862;28;20052;-71
2022/09/19 12:18:14;;;;;;;6.10;5.80;;;;;;;;;;5028360;28;20036;-72
2022/09/19 12:20:48;;;;;;;5.85;5.55;;;;;;;;;;5016985;28;20095;-72
2022/09/19 12:26:24;;;;;;;6.43;6.13;;;;;;;;;;5025512;28;20901;-72
2022/09/19 12:29:03;;;;;;;5.80;5.50;;;;;;;;;;5016904;28;20488;-72
2022/09/19 12:31:36;;;;;;;6.07;5.78;;;;;;;;;;5027477;28;20033;-72
2022/09/19 12:34:29;;;;;;;6.32;6.03;;;;;;;;;;5029462;28;20041;-72
2022/09/19 12:37:08;;;;;;;6.18;5.88;;;;;;;;;;5036064;28;20028;-72
2022/09/19 12:39:37;;;;;;;;;;;;;;;;;;5035033;28;20457;-73
2022/09/19 12:42:14;;;;;;;6.30;6.00;;;;;;;;;;4998331;28;19913;-72
2022/09/19 12:45:22;;;;;;;6.10;5.80;;;;;;;;;;5015254;28;20495;-72
2022/09/19 12:47:59;;;;;;;5.93;5.63;;;;;;;;;;4937443;29;20483;-72
2022/09/19 12:50:58;;;;;;;6.28;5.97;;;;;;;;;;4997838;28;20120;-72
2022/09/19 12:53:38;;;;;;;6.25;5.95;;;;;;;;;;5033209;28;20033;-72
2022/09/19 12:56:05;;;;;;;6.07;5.78;;;;;;;;;;5018228;28;20028;-72
2022/09/19 12:58:49;;;;;;;6.15;5.85;;;;;;;;;;5035864;28;20068;-72
2022/09/19 13:01:26;;;;;;;6.60;6.30;;;;;;;;;;5020310;28;20034;-72
2022/09/19 13:04:44;;;;;;;6.40;6.10;;;;;;;;;;5033577;28;20029;-72
2022/09/19 13:07:19;;;;;;;6.20;5.90;;;;;;;;;;4950321;28;20073;-72
2022/09/19 13:09:54;;;;;;;6.20;5.90;;;;;;;;;;4951171;28;20051;-72
2022/09/19 13:12:41;;;;;;;5.95;5.65;;;;;;;;;;4951987;28;20050;-72
2022/09/19 13:15:17;;;;;;;5.97;5.68;;;;;;;;;;4949483;28;20042;-72
2022/09/19 13:23:38;;;;;;;6.22;5.93;;;;;;;;;;4952336;28;20042;-72
2022/09/19 13:26:16;;;;;;;6.20;5.90;;;;;;;;;;4952580;28;20490;-72
2022/09/19 13:29:08;;;;;;;6.13;5.82;;;;;;;;;;4950997;28;20047;-71
2022/09/19 13:31:50;;;;;;;6.00;5.70;;;;;;;;;;4946072;28;20043;-72
2022/09/19 13:34:39;;;;;;;5.90;5.60;;;;;;;;;;4953453;28;20127;-72
2022/09/19 13:37:23;;;;;;;5.95;5.65;;;;;;;;;;4955625;28;20134;-72
2022/09/19 13:40:24;;;;;;;6.35;6.05;;;;;;;;;;4951102;28;20082;-72
2022/09/19 13:42:52;;;;;;;6.20;5.90;;;;;;;;;;4987057;28;20049;-71
2022/09/19 13:45:45;;;;;;;6.22;5.93;;;;;;;;;;5031482;28;20033;-71
2022/09/19 13:48:35;;;;;;;5.70;5.40;;;;;;;;;;5023056;28;20033;-71
2022/09/19 13:51:16;;;;;;;6.45;6.15;;;;;;;;;;5032875;28;20029;-72
2022/09/19 13:53:44;;;;;;;6.63;6.32;;;;;;;;;;5029156;28;20049;-72
2022/09/19 13:56:27;;;;;;;6.20;5.90;;;;;;;;;;5034473;28;20045;-72
2022/09/19 13:59:21;;;;;;;6.22;5.93;;;;;;;;;;5031031;28;21408;-72
2022/09/19 14:02:01;;;;;;;6.18;5.88;;;;;;;;;;5025005;28;20136;-72
2022/09/19 14:05:01;;;;;;;6.13;5.82;;;;;;;;;;5027893;28;20536;-72
2022/09/19 14:07:59;;;;;;;6.00;5.70;;;;;;;;;;5024495;28;20049;-72
2022/09/19 14:10:47;;;;;;;5.88;5.57;;;;;;;;;;5033457;28;20040;-72
2022/09/19 14:13:27;;;;;;;6.05;5.75;;;;;;;;;;5028694;28;20033;-72
2022/09/19 14:16:07;;;;;;;;;;;;;;;;;;5026266;28;20041;-71
2022/09/19 14:18:36;;;;;;;5.90;5.60;;;;;;;;;;5030124;28;19921;-72
2022/09/19 14:21:07;;;;;;;6.50;6.20;;;;;;;;;;5029886;28;20505;-72
2022/09/19 14:23:39;;;;;;;6.10;5.80;;;;;;;;;;5031297;28;20057;-71
2022/09/19 14:26:16;;;;;;;6.22;5.93;;;;;;;;;;5035248;28;20715;-71
2022/09/19 14:29:22;;;;;;;6.22;5.93;;;;;;;;;;5027572;28;20036;-72
2022/09/19 14:31:51;;;;;;;6.30;6.00;;;;;;;;;;4952161;28;20035;-71
2022/09/19 14:34:38;;;;;;;6.43;6.13;;;;;;;;;;5014565;28;20092;-72
2022/09/19 14:37:07;;;;;;;6.40;6.10;;;;;;;;;;5029717;28;20508;-71
2022/09/19 14:39:46;;;;;;;6.38;6.07;;;;;;;;;;5032222;28;20048;-71
2022/09/19 14:42:33;;;;;;;6.38;6.07;;;;;;;;;;5032435;28;20076;-71
2022/09/19 14:44:59;;;;;;;6.32;6.03;;;;;;;;;;5018423;28;20099;-71
2022/09/19 14:47:30;;;;;;;6.10;5.80;;;;;;;;;;5033114;28;20057;-71
2022/09/19 14:50:01;;;;;;;6.32;6.03;;;;;;;;;;5035188;28;20040;-71
2022/09/19 14:52:30;;;;;;;6.25;5.95;;;;;;;;;;5035240;28;20594;-71
2022/09/19 14:54:55;;;;;;;6.30;6.00;;;;;;;;;;5035427;28;20056;-71
2022/09/19 14:57:22;;;;;;;6.35;6.05;;;;;;;;;;5037144;28;20356;-71
2022/09/19 14:59:49;;;;;;;6.15;5.85;;;;;;;;;;5037314;28;20029;-71
2022/09/19 15:02:28;;;;;;;6.10;5.80;;;;;;;;;;5018296;28;20037;-72
2022/09/19 15:05:00;;;;;;;6.30;6.00;;;;;;;;;;5034212;28;20622;-71
2022/09/19 15:07:29;;;;;;;6.13;5.82;;;;;;;;;;5024865;28;20120;-71
2022/09/19 15:09:54;;;;;;;5.53;5.32;;;;;;;;;;5039168;28;20032;-71
2022/09/19 15:12:24;;;;;;;6.00;5.70;;;;;;;;;;5039382;28;20408;-71
2022/09/19 15:14:53;;;;;;;6.20;5.90;;;;;;;;;;5038791;28;20123;-71
2022/09/19 15:17:26;;;;;;;6.23;5.93;;;;;;;;;;5034010;28;20057;-71
2022/09/19 15:19:56;;;;;;;5.57;5.38;;;;;;;;;;5032745;28;20921;-71
2022/09/19 15:22:34;;;;;;;5.50;5.30;;;;;;;;;;5022346;28;20116;-72
2022/09/19 15:25:21;;;;;;;6.50;6.20;;;;;;;;;;5017082;28;20485;-71
2022/09/19 15:27:52;;;;;;;6.18;5.88;;;;;;;;;;5037016;28;21090;-72
2022/09/19 15:30:25;;;;;;;5.82;5.53;;;;;;;;;;5032948;28;20120;-72
2022/09/19 15:33:11;;;;;;;6.28;5.97;;;;;;;;;;5036745;28;20033;-72
2022/09/19 15:35:40;;;;;;;6.10;5.80;;;;;;;;;;5036463;28;20041;-72
2022/09/19 15:38:12;;;;;;;6.00;5.70;;;;;;;;;;5032463;28;20119;-72
2022/09/19 15:40:38;;;;;;;6.20;5.90;;;;;;;;;;5029946;28;20190;-71
2022/09/19 15:43:10;;;;;;;6.40;6.10;;;;;;;;;;5034604;28;20041;-71
2022/09/19 15:45:44;;;;;;;6.63;6.32;;;;;;;;;;5031865;28;20610;-71
2022/09/19 15:48:18;;;;;;;6.40;6.10;;;;;;;;;;5018613;28;20098;-71
2022/09/19 15:50:49;;;;;;;6.45;6.15;;;;;;;;;;5037314;28;20037;-71
2022/09/19 15:53:35;;;;;;;6.20;5.90;;;;;;;;;;5036695;28;20072;-71
2022/09/19 15:56:03;;;;;;;6.40;6.10;;;;;;;;;;5026704;28;20034;-70
2022/09/19 15:58:34;;;;;;;6.38;6.07;;;;;;;;;;5035286;28;20044;-70
2022/09/19 16:01:10;;;;;;;6.63;6.32;;;;;;;;;;5031059;28;20075;-71
2022/09/19 16:03:36;;;;;;;6.45;6.15;;;;;;;;;;5036673;28;20508;-71
2022/09/19 16:09:07;;;;;;;6.30;6.00;;;;;;;;;;5034582;28;20037;-70